sensor_id;sensor_type;location;lat;lon;timestamp;temperature;humidity
648;DHT22;75315;49.006;9.060;2024-01-11T00:01:10;-4.60;1.00
648;DHT22;75315;49.006;9.060;2024-01-11T00:03:36;-4.60;1.00
648;DHT22;75315;49.006;9.060;2024-01-11T00:06:01;-4.60;1.00
648;DHT22;75315;49.006;9.060;2024-01-11T00:08:27;-4.60;1.00
648;DHT22;75315;49.006;9.060;2024-01-11T00:10:52;-4.70;1.00
648;DHT22;75315;49.006;9.060;2024-01-11T00:13:18;-4.60;1.00
648;DHT22;75315;49.006;9.060;2024-01-11T00:15:44;-4.50;1.00
648;DHT22;75315;49.006;9.060;2024-01-11T00:18:09;-4.40;1.00
648;DHT22;75315;49.006;9.060;2024-01-11T00:20:35;-4.50;1.00
648;DHT22;75315;49.006;9.060;2024-01-11T00:23:00;-4.60;1.00
648;DHT22;75315;49.006;9.060;2024-01-11T00:25:26;-4.60;1.00
648;DHT22;75315;49.006;9.060;2024-01-11T00:27:52;-4.60;10.60
648;DHT22;75315;49.006;9.060;2024-01-11T00:30:17;-4.70;99.90
648;DHT22;75315;49.006;9.060;2024-01-11T00:32:43;-4.60;99.90
648;DHT22;75315;49.006;9.060;2024-01-11T00:35:08;-4.70;50.80
648;DHT22;75315;49.006;9.060;2024-01-11T00:37:34;-4.60;98.80
648;DHT22;75315;49.006;9.060;2024-01-11T00:39:59;-4.60;99.90
648;DHT22;75315;49.006;9.060;2024-01-11T00:42:25;-4.70;99.90
648;DHT22;75315;49.006;9.060;2024-01-11T00:44:51;-4.70;99.90
648;DHT22;75315;49.006;9.060;2024-01-11T00:47:16;-4.70;99.90
648;DHT22;75315;49.006;9.060;2024-01-11T00:49:42;-4.70;99.90
648;DHT22;75315;49.006;9.060;2024-01-11T00:52:08;-4.70;99.90
648;DHT22;75315;49.006;9.060;2024-01-11T00:54:35;-4.70;97.20
648;DHT22;75315;49.006;9.060;2024-01-11T00:57:00;-4.70;99.90
648;DHT22;75315;49.006;9.060;2024-01-11T00:59:26;-4.70;99.90
648;DHT22;75315;49.006;9.060;2024-01-11T01:01:52;-4.60;99.90
648;DHT22;75315;49.006;9.060;2024-01-11T01:04:21;-4.60;99.90
648;DHT22;75315;49.006;9.060;2024-01-11T01:06:46;-4.60;90.80
648;DHT22;75315;49.006;9.060;2024-01-11T01:09:12;-4.60;99.90
648;DHT22;75315;49.006;9.060;2024-01-11T01:11:38;-4.70;1.00
648;DHT22;75315;49.006;9.060;2024-01-11T01:14:05;-4.70;1.00
648;DHT22;75315;49.006;9.060;2024-01-11T01:16:30;-4.70;1.00
648;DHT22;75315;49.006;9.060;2024-01-11T01:18:56;-4.80;1.00
648;DHT22;75315;49.006;9.060;2024-01-11T01:21:22;-4.80;1.00
648;DHT22;75315;49.006;9.060;2024-01-11T01:23:47;-4.80;1.00
648;DHT22;75315;49.006;9.060;2024-01-11T01:26:13;-4.80;5.80
648;DHT22;75315;49.006;9.060;2024-01-11T01:28:38;-4.80;99.90
648;DHT22;75315;49.006;9.060;2024-01-11T01:31:05;-4.80;99.90
648;DHT22;75315;49.006;9.060;2024-01-11T01:33:31;-4.80;99.90
648;DHT22;75315;49.006;9.060;2024-01-11T01:35:56;-4.80;1.00
648;DHT22;75315;49.006;9.060;2024-01-11T01:38:22;-4.80;1.00
648;DHT22;75315;49.006;9.060;2024-01-11T01:40:50;-4.70;1.00
648;DHT22;75315;49.006;9.060;2024-01-11T01:43:16;-4.70;1.00
648;DHT22;75315;49.006;9.060;2024-01-11T01:45:41;-4.60;1.00
648;DHT22;75315;49.006;9.060;2024-01-11T01:48:07;-4.70;1.00
648;DHT22;75315;49.006;9.060;2024-01-11T01:50:33;-4.70;1.00
648;DHT22;75315;49.006;9.060;2024-01-11T01:52:59;-4.70;1.00
648;DHT22;75315;49.006;9.060;2024-01-11T01:55:25;-4.60;1.00
648;DHT22;75315;49.006;9.060;2024-01-11T01:57:52;-4.50;99.90
648;DHT22;75315;49.006;9.060;2024-01-11T02:00:18;-4.50;99.90
648;DHT22;75315;49.006;9.060;2024-01-11T02:02:46;-4.60;99.90
648;DHT22;75315;49.006;9.060;2024-01-11T02:05:14;-4.60;99.90
648;DHT22;75315;49.006;9.060;2024-01-11T02:07:41;-4.60;99.90
648;DHT22;75315;49.006;9.060;2024-01-11T02:10:10;-4.60;1.00
648;DHT22;75315;49.006;9.060;2024-01-11T02:12:36;-4.60;99.90
648;DHT22;75315;49.006;9.060;2024-01-11T02:15:03;-4.70;99.90
648;DHT22;75315;49.006;9.060;2024-01-11T02:17:30;-4.70;99.90
648;DHT22;75315;49.006;9.060;2024-01-11T02:19:55;-4.70;99.90
648;DHT22;75315;49.006;9.060;2024-01-11T02:22:29;-4.70;99.90
648;DHT22;75315;49.006;9.060;2024-01-11T02:24:57;-4.70;99.90
648;DHT22;75315;49.006;9.060;2024-01-11T02:27:23;-4.70;99.90
648;DHT22;75315;49.006;9.060;2024-01-11T02:29:49;-4.70;99.90
648;DHT22;75315;49.006;9.060;2024-01-11T02:32:14;-4.80;99.90
648;DHT22;75315;49.006;9.060;2024-01-11T02:34:43;-4.70;99.90
648;DHT22;75315;49.006;9.060;2024-01-11T02:37:09;-4.60;99.90
648;DHT22;75315;49.006;9.060;2024-01-11T02:39:34;-4.70;99.90
648;DHT22;75315;49.006;9.060;2024-01-11T02:42:01;-4.70;99.90
648;DHT22;75315;49.006;9.060;2024-01-11T02:44:27;-4.90;99.90
648;DHT22;75315;49.006;9.060;2024-01-11T02:46:53;-4.90;99.90
648;DHT22;75315;49.006;9.060;2024-01-11T02:49:18;-4.90;99.90
648;DHT22;75315;49.006;9.060;2024-01-11T02:51:44;-5.00;99.90
648;DHT22;75315;49.006;9.060;2024-01-11T02:54:10;-5.00;99.90
648;DHT22;75315;49.006;9.060;2024-01-11T02:56:35;-5.00;99.90
648;DHT22;75315;49.006;9.060;2024-01-11T02:59:01;-5.00;99.90
648;DHT22;75315;49.006;9.060;2024-01-11T03:01:27;-5.00;46.20
648;DHT22;75315;49.006;9.060;2024-01-11T03:03:52;-5.00;9.70
648;DHT22;75315;49.006;9.060;2024-01-11T03:06:18;-5.00;47.50
648;DHT22;75315;49.006;9.060;2024-01-11T03:08:47;-5.00;99.90
648;DHT22;75315;49.006;9.060;2024-01-11T03:11:14;-5.10;99.90
648;DHT22;75315;49.006;9.060;2024-01-11T03:13:39;-5.10;99.40
648;DHT22;75315;49.006;9.060;2024-01-11T03:16:05;-5.10;66.80
648;DHT22;75315;49.006;9.060;2024-01-11T03:18:31;-5.20;99.90
648;DHT22;75315;49.006;9.060;2024-01-11T03:20:57;-5.20;99.90
648;DHT22;75315;49.006;9.060;2024-01-11T03:23:22;-5.20;99.90
648;DHT22;75315;49.006;9.060;2024-01-11T03:25:48;-5.30;99.90
648;DHT22;75315;49.006;9.060;2024-01-11T03:28:13;-5.30;97.90
648;DHT22;75315;49.006;9.060;2024-01-11T03:30:39;-5.20;99.90
648;DHT22;75315;49.006;9.060;2024-01-11T03:33:08;-5.20;1.00
648;DHT22;75315;49.006;9.060;2024-01-11T03:35:34;-5.20;1.00
648;DHT22;75315;49.006;9.060;2024-01-11T03:37:59;-5.30;1.00
648;DHT22;75315;49.006;9.060;2024-01-11T03:40:25;-5.30;1.00
648;DHT22;75315;49.006;9.060;2024-01-11T03:42:50;-5.30;99.90
648;DHT22;75315;49.006;9.060;2024-01-11T03:45:19;-5.40;1.00
648;DHT22;75315;49.006;9.060;2024-01-11T03:47:44;-5.40;99.90
648;DHT22;75315;49.006;9.060;2024-01-11T03:50:10;-5.40;99.90
648;DHT22;75315;49.006;9.060;2024-01-11T03:52:36;-5.40;1.00
648;DHT22;75315;49.006;9.060;2024-01-11T03:55:02;-5.40;99.90
648;DHT22;75315;49.006;9.060;2024-01-11T03:57:27;-5.40;99.90
648;DHT22;75315;49.006;9.060;2024-01-11T03:59:53;-5.40;99.90
648;DHT22;75315;49.006;9.060;2024-01-11T04:02:19;-5.50;99.90
648;DHT22;75315;49.006;9.060;2024-01-11T04:04:44;-5.60;99.90
648;DHT22;75315;49.006;9.060;2024-01-11T04:07:10;-5.50;99.90
648;DHT22;75315;49.006;9.060;2024-01-11T04:09:37;-5.60;99.90
648;DHT22;75315;49.006;9.060;2024-01-11T04:12:04;-5.60;99.90
648;DHT22;75315;49.006;9.060;2024-01-11T04:14:30;-5.60;99.90
648;DHT22;75315;49.006;9.060;2024-01-11T04:16:56;-5.60;99.90
648;DHT22;75315;49.006;9.060;2024-01-11T04:19:21;-5.60;99.90
648;DHT22;75315;49.006;9.060;2024-01-11T04:21:47;-5.50;99.90
648;DHT22;75315;49.006;9.060;2024-01-11T04:24:13;-5.60;1.00
648;DHT22;75315;49.006;9.060;2024-01-11T04:26:38;-5.60;1.00
648;DHT22;75315;49.006;9.060;2024-01-11T04:29:06;-5.60;1.00
648;DHT22;75315;49.006;9.060;2024-01-11T04:31:32;-5.60;1.00
648;DHT22;75315;49.006;9.060;2024-01-11T04:33:58;-5.60;1.00
648;DHT22;75315;49.006;9.060;2024-01-11T04:36:24;-5.60;1.00
648;DHT22;75315;49.006;9.060;2024-01-11T04:38:50;-5.70;1.00
648;DHT22;75315;49.006;9.060;2024-01-11T04:41:15;-5.70;1.00
648;DHT22;75315;49.006;9.060;2024-01-11T04:43:42;-5.70;1.00
648;DHT22;75315;49.006;9.060;2024-01-11T04:46:18;-5.70;1.00
648;DHT22;75315;49.006;9.060;2024-01-11T04:48:47;-5.70;1.00
648;DHT22;75315;49.006;9.060;2024-01-11T04:51:14;-5.70;9.70
648;DHT22;75315;49.006;9.060;2024-01-11T04:53:44;-5.70;99.90
648;DHT22;75315;49.006;9.060;2024-01-11T04:56:13;-5.70;99.90
648;DHT22;75315;49.006;9.060;2024-01-11T04:58:42;-5.70;1.00
648;DHT22;75315;49.006;9.060;2024-01-11T05:01:17;-5.60;1.00
648;DHT22;75315;49.006;9.060;2024-01-11T05:03:45;-5.70;99.90
648;DHT22;75315;49.006;9.060;2024-01-11T05:06:17;-5.70;1.00
648;DHT22;75315;49.006;9.060;2024-01-11T05:08:46;-5.70;99.90
648;DHT22;75315;49.006;9.060;2024-01-11T05:11:16;-5.70;36.70
648;DHT22;75315;49.006;9.060;2024-01-11T05:13:47;-5.80;38.00
648;DHT22;75315;49.006;9.060;2024-01-11T05:16:27;-5.70;99.90
648;DHT22;75315;49.006;9.060;2024-01-11T05:18:55;-5.60;1.00
648;DHT22;75315;49.006;9.060;2024-01-11T05:21:21;-5.60;1.00
648;DHT22;75315;49.006;9.060;2024-01-11T05:23:47;-5.60;1.00
648;DHT22;75315;49.006;9.060;2024-01-11T05:26:15;-5.70;1.00
648;DHT22;75315;49.006;9.060;2024-01-11T05:28:41;-5.70;1.00
648;DHT22;75315;49.006;9.060;2024-01-11T05:31:11;-5.60;99.90
648;DHT22;75315;49.006;9.060;2024-01-11T05:33:37;-5.50;99.90
648;DHT22;75315;49.006;9.060;2024-01-11T05:36:03;-5.50;99.90
648;DHT22;75315;49.006;9.060;2024-01-11T05:38:29;-5.50;95.80
648;DHT22;75315;49.006;9.060;2024-01-11T05:40:55;-5.50;1.00
648;DHT22;75315;49.006;9.060;2024-01-11T05:43:22;-5.50;1.00
648;DHT22;75315;49.006;9.060;2024-01-11T05:45:48;-5.50;1.00
648;DHT22;75315;49.006;9.060;2024-01-11T05:48:15;-5.50;1.00
648;DHT22;75315;49.006;9.060;2024-01-11T05:50:41;-5.40;1.00
648;DHT22;75315;49.006;9.060;2024-01-11T05:53:07;-5.40;1.00
648;DHT22;75315;49.006;9.060;2024-01-11T05:55:32;-5.40;1.00
648;DHT22;75315;49.006;9.060;2024-01-11T05:57:58;-5.40;1.00
648;DHT22;75315;49.006;9.060;2024-01-11T06:00:24;-5.40;99.90
648;DHT22;75315;49.006;9.060;2024-01-11T06:02:49;-5.40;1.00
648;DHT22;75315;49.006;9.060;2024-01-11T06:05:15;-5.40;1.00
648;DHT22;75315;49.006;9.060;2024-01-11T06:07:41;-5.40;99.90
648;DHT22;75315;49.006;9.060;2024-01-11T06:10:07;-5.40;1.00
648;DHT22;75315;49.006;9.060;2024-01-11T06:12:34;-5.50;99.90
648;DHT22;75315;49.006;9.060;2024-01-11T06:15:01;-5.40;1.00
648;DHT22;75315;49.006;9.060;2024-01-11T06:17:26;-5.40;1.00
648;DHT22;75315;49.006;9.060;2024-01-11T06:19:52;-5.40;99.90
648;DHT22;75315;49.006;9.060;2024-01-11T06:22:17;-5.30;99.90
648;DHT22;75315;49.006;9.060;2024-01-11T06:24:43;-5.40;99.90
648;DHT22;75315;49.006;9.060;2024-01-11T06:27:09;-5.40;99.90
648;DHT22;75315;49.006;9.060;2024-01-11T06:29:35;-5.40;99.90
648;DHT22;75315;49.006;9.060;2024-01-11T06:32:01;-5.40;99.90
648;DHT22;75315;49.006;9.060;2024-01-11T06:34:26;-5.40;99.90
648;DHT22;75315;49.006;9.060;2024-01-11T06:36:53;-5.40;1.00
648;DHT22;75315;49.006;9.060;2024-01-11T06:39:18;-5.40;99.90
648;DHT22;75315;49.006;9.060;2024-01-11T06:41:44;-5.40;1.00
648;DHT22;75315;49.006;9.060;2024-01-11T06:44:09;-5.40;1.00
648;DHT22;75315;49.006;9.060;2024-01-11T06:46:35;-5.40;99.90
648;DHT22;75315;49.006;9.060;2024-01-11T06:49:01;-5.40;99.90
648;DHT22;75315;49.006;9.060;2024-01-11T06:51:27;-5.40;99.90
648;DHT22;75315;49.006;9.060;2024-01-11T06:53:53;-5.40;99.90
648;DHT22;75315;49.006;9.060;2024-01-11T06:56:19;-5.40;99.90
648;DHT22;75315;49.006;9.060;2024-01-11T06:58:46;-5.30;99.90
648;DHT22;75315;49.006;9.060;2024-01-11T07:01:12;-5.40;99.90
648;DHT22;75315;49.006;9.060;2024-01-11T07:03:38;-5.40;99.90
648;DHT22;75315;49.006;9.060;2024-01-11T07:06:04;-5.40;99.90
648;DHT22;75315;49.006;9.060;2024-01-11T07:08:30;-5.40;99.90
648;DHT22;75315;49.006;9.060;2024-01-11T07:10:58;-5.40;99.90
648;DHT22;75315;49.006;9.060;2024-01-11T07:13:23;-5.40;99.90
648;DHT22;75315;49.006;9.060;2024-01-11T07:15:49;-5.40;99.90
648;DHT22;75315;49.006;9.060;2024-01-11T07:18:17;-5.50;99.90
648;DHT22;75315;49.006;9.060;2024-01-11T07:20:43;-5.40;99.90
648;DHT22;75315;49.006;9.060;2024-01-11T07:23:09;-5.30;99.90
648;DHT22;75315;49.006;9.060;2024-01-11T07:25:34;-5.20;55.70
648;DHT22;75315;49.006;9.060;2024-01-11T07:28:00;-5.40;93.10
648;DHT22;75315;49.006;9.060;2024-01-11T07:30:26;-5.40;99.90
648;DHT22;75315;49.006;9.060;2024-01-11T07:32:52;-5.40;99.90
648;DHT22;75315;49.006;9.060;2024-01-11T07:35:17;-5.50;99.90
648;DHT22;75315;49.006;9.060;2024-01-11T07:37:43;-5.40;99.90
648;DHT22;75315;49.006;9.060;2024-01-11T07:40:09;-5.40;99.90
648;DHT22;75315;49.006;9.060;2024-01-11T07:42:40;-5.40;99.90
648;DHT22;75315;49.006;9.060;2024-01-11T07:45:07;-5.40;99.90
648;DHT22;75315;49.006;9.060;2024-01-11T07:47:33;-5.30;99.90
648;DHT22;75315;49.006;9.060;2024-01-11T07:49:59;-5.30;99.90
648;DHT22;75315;49.006;9.060;2024-01-11T07:52:24;-5.10;99.90
648;DHT22;75315;49.006;9.060;2024-01-11T07:54:50;-5.00;99.90
648;DHT22;75315;49.006;9.060;2024-01-11T07:57:15;-4.90;99.90
648;DHT22;75315;49.006;9.060;2024-01-11T07:59:44;-4.80;1.00
648;DHT22;75315;49.006;9.060;2024-01-11T08:02:10;-4.80;1.00
648;DHT22;75315;49.006;9.060;2024-01-11T08:04:35;-4.80;1.00
648;DHT22;75315;49.006;9.060;2024-01-11T08:07:02;-4.70;1.00
648;DHT22;75315;49.006;9.060;2024-01-11T08:09:28;-4.60;1.00
648;DHT22;75315;49.006;9.060;2024-01-11T08:11:54;-4.60;1.00
648;DHT22;75315;49.006;9.060;2024-01-11T08:14:20;-4.50;1.00
648;DHT22;75315;49.006;9.060;2024-01-11T08:16:46;-4.50;1.00
648;DHT22;75315;49.006;9.060;2024-01-11T08:19:12;-4.30;1.00
648;DHT22;75315;49.006;9.060;2024-01-11T08:21:40;-4.20;1.00
648;DHT22;75315;49.006;9.060;2024-01-11T08:24:07;-4.10;1.00
648;DHT22;75315;49.006;9.060;2024-01-11T08:26:32;-4.00;1.00
648;DHT22;75315;49.006;9.060;2024-01-11T08:28:58;-3.80;1.00
648;DHT22;75315;49.006;9.060;2024-01-11T08:31:24;-3.80;1.00
648;DHT22;75315;49.006;9.060;2024-01-11T08:33:50;-3.80;1.00
648;DHT22;75315;49.006;9.060;2024-01-11T08:36:16;-3.60;1.00
648;DHT22;75315;49.006;9.060;2024-01-11T08:38:41;-3.50;1.00
648;DHT22;75315;49.006;9.060;2024-01-11T08:41:07;-3.50;1.00
648;DHT22;75315;49.006;9.060;2024-01-11T08:43:33;-3.40;1.00
648;DHT22;75315;49.006;9.060;2024-01-11T08:45:58;-3.30;1.00
648;DHT22;75315;49.006;9.060;2024-01-11T08:48:24;-3.30;1.00
648;DHT22;75315;49.006;9.060;2024-01-11T08:50:50;-3.20;1.00
648;DHT22;75315;49.006;9.060;2024-01-11T08:53:16;-3.20;1.00
648;DHT22;75315;49.006;9.060;2024-01-11T08:55:42;-3.20;1.00
648;DHT22;75315;49.006;9.060;2024-01-11T08:58:08;-3.40;1.00
648;DHT22;75315;49.006;9.060;2024-01-11T09:00:34;-3.30;1.00
648;DHT22;75315;49.006;9.060;2024-01-11T09:03:03;-3.20;1.00
648;DHT22;75315;49.006;9.060;2024-01-11T09:05:28;-3.20;1.00
648;DHT22;75315;49.006;9.060;2024-01-11T09:07:54;-3.20;1.00
648;DHT22;75315;49.006;9.060;2024-01-11T09:10:20;-3.10;1.00
648;DHT22;75315;49.006;9.060;2024-01-11T09:12:46;-3.10;1.00
648;DHT22;75315;49.006;9.060;2024-01-11T09:15:12;-3.10;1.00
648;DHT22;75315;49.006;9.060;2024-01-11T09:17:38;-2.90;1.00
648;DHT22;75315;49.006;9.060;2024-01-11T09:20:04;-2.90;1.00
648;DHT22;75315;49.006;9.060;2024-01-11T09:22:30;-2.80;1.00
648;DHT22;75315;49.006;9.060;2024-01-11T09:24:56;-2.70;1.00
648;DHT22;75315;49.006;9.060;2024-01-11T09:27:21;-2.50;1.00
648;DHT22;75315;49.006;9.060;2024-01-11T09:29:47;-2.50;1.00
648;DHT22;75315;49.006;9.060;2024-01-11T09:32:13;-2.30;1.00
648;DHT22;75315;49.006;9.060;2024-01-11T09:34:39;-2.20;1.00
648;DHT22;75315;49.006;9.060;2024-01-11T09:37:04;-2.00;1.00
648;DHT22;75315;49.006;9.060;2024-01-11T09:39:30;-2.00;1.00
648;DHT22;75315;49.006;9.060;2024-01-11T09:41:59;-2.20;1.00
648;DHT22;75315;49.006;9.060;2024-01-11T09:44:29;-1.90;1.00
648;DHT22;75315;49.006;9.060;2024-01-11T09:46:56;-1.80;1.00
648;DHT22;75315;49.006;9.060;2024-01-11T09:49:23;-1.60;1.00
648;DHT22;75315;49.006;9.060;2024-01-11T09:51:51;-1.50;1.00
648;DHT22;75315;49.006;9.060;2024-01-11T09:54:18;-1.50;1.00
648;DHT22;75315;49.006;9.060;2024-01-11T09:56:46;-1.50;1.00
648;DHT22;75315;49.006;9.060;2024-01-11T09:59:15;-1.30;1.00
648;DHT22;75315;49.006;9.060;2024-01-11T10:01:43;-1.40;1.00
648;DHT22;75315;49.006;9.060;2024-01-11T10:04:09;-1.30;1.00
648;DHT22;75315;49.006;9.060;2024-01-11T10:06:41;-1.10;1.00
648;DHT22;75315;49.006;9.060;2024-01-11T10:09:07;-1.00;1.00
648;DHT22;75315;49.006;9.060;2024-01-11T10:11:33;-0.90;1.00
648;DHT22;75315;49.006;9.060;2024-01-11T10:14:00;-0.80;1.00
648;DHT22;75315;49.006;9.060;2024-01-11T10:16:28;-0.70;1.00
648;DHT22;75315;49.006;9.060;2024-01-11T10:18:55;-0.70;1.00
648;DHT22;75315;49.006;9.060;2024-01-11T10:21:21;-0.80;1.00
648;DHT22;75315;49.006;9.060;2024-01-11T10:23:46;-0.80;1.00
648;DHT22;75315;49.006;9.060;2024-01-11T10:26:15;-0.60;1.00
648;DHT22;75315;49.006;9.060;2024-01-11T10:28:45;-0.60;1.00
648;DHT22;75315;49.006;9.060;2024-01-11T10:31:12;-0.60;1.00
648;DHT22;75315;49.006;9.060;2024-01-11T10:33:38;-0.50;1.00
648;DHT22;75315;49.006;9.060;2024-01-11T10:36:04;-0.30;1.00
648;DHT22;75315;49.006;9.060;2024-01-11T10:38:36;-0.50;1.00
648;DHT22;75315;49.006;9.060;2024-01-11T10:41:04;-0.40;1.00
648;DHT22;75315;49.006;9.060;2024-01-11T10:43:31;-0.30;1.00
648;DHT22;75315;49.006;9.060;2024-01-11T10:45:59;-0.40;1.00
648;DHT22;75315;49.006;9.060;2024-01-11T10:48:28;-0.20;1.00
648;DHT22;75315;49.006;9.060;2024-01-11T10:50:59;-0.20;1.00
648;DHT22;75315;49.006;9.060;2024-01-11T10:53:43;-0.10;1.00
648;DHT22;75315;49.006;9.060;2024-01-11T10:56:11;0.00;1.00
648;DHT22;75315;49.006;9.060;2024-01-11T10:58:41;0.10;1.00
648;DHT22;75315;49.006;9.060;2024-01-11T11:01:08;0.10;1.00
648;DHT22;75315;49.006;9.060;2024-01-11T11:03:35;0.20;1.00
648;DHT22;75315;49.006;9.060;2024-01-11T11:06:01;0.20;1.00
648;DHT22;75315;49.006;9.060;2024-01-11T11:08:28;0.10;1.00
648;DHT22;75315;49.006;9.060;2024-01-11T11:10:58;0.10;1.00
648;DHT22;75315;49.006;9.060;2024-01-11T11:13:24;0.10;1.00
648;DHT22;75315;49.006;9.060;2024-01-11T11:15:53;0.20;1.00
648;DHT22;75315;49.006;9.060;2024-01-11T11:18:20;0.10;1.00
648;DHT22;75315;49.006;9.060;2024-01-11T11:20:47;0.00;1.00
648;DHT22;75315;49.006;9.060;2024-01-11T11:23:16;0.10;1.00
648;DHT22;75315;49.006;9.060;2024-01-11T11:25:48;0.10;1.00
648;DHT22;75315;49.006;9.060;2024-01-11T11:28:15;0.20;1.00
648;DHT22;75315;49.006;9.060;2024-01-11T11:30:42;0.00;1.00
648;DHT22;75315;49.006;9.060;2024-01-11T11:33:17;0.10;1.00
648;DHT22;75315;49.006;9.060;2024-01-11T11:35:43;0.10;1.00
648;DHT22;75315;49.006;9.060;2024-01-11T11:38:16;0.20;1.00
648;DHT22;75315;49.006;9.060;2024-01-11T11:40:42;0.20;1.00
648;DHT22;75315;49.006;9.060;2024-01-11T11:43:10;0.10;1.00
648;DHT22;75315;49.006;9.060;2024-01-11T11:45:37;0.10;1.00
648;DHT22;75315;49.006;9.060;2024-01-11T11:51:11;0.40;1.00
648;DHT22;75315;49.006;9.060;2024-01-11T11:53:39;0.40;1.00
648;DHT22;75315;49.006;9.060;2024-01-11T11:56:06;0.50;1.00
648;DHT22;75315;49.006;9.060;2024-01-11T11:58:33;0.60;1.00
648;DHT22;75315;49.006;9.060;2024-01-11T12:00:59;0.70;1.00
648;DHT22;75315;49.006;9.060;2024-01-11T12:03:30;0.60;1.00
648;DHT22;75315;49.006;9.060;2024-01-11T12:05:57;0.60;1.00
648;DHT22;75315;49.006;9.060;2024-01-11T12:08:23;0.50;1.00
648;DHT22;75315;49.006;9.060;2024-01-11T12:10:49;0.50;1.00
648;DHT22;75315;49.006;9.060;2024-01-11T12:13:15;0.50;1.00
648;DHT22;75315;49.006;9.060;2024-01-11T12:15:40;0.50;1.00
648;DHT22;75315;49.006;9.060;2024-01-11T12:18:06;0.50;1.00
648;DHT22;75315;49.006;9.060;2024-01-11T12:20:35;0.60;1.00
648;DHT22;75315;49.006;9.060;2024-01-11T12:23:04;0.60;1.00
648;DHT22;75315;49.006;9.060;2024-01-11T12:25:30;0.50;1.00
648;DHT22;75315;49.006;9.060;2024-01-11T12:27:56;0.40;99.90
648;DHT22;75315;49.006;9.060;2024-01-11T12:30:23;0.60;99.90
648;DHT22;75315;49.006;9.060;2024-01-11T12:32:53;0.50;1.00
648;DHT22;75315;49.006;9.060;2024-01-11T12:35:19;0.50;99.90
648;DHT22;75315;49.006;9.060;2024-01-11T12:37:54;0.50;99.90
648;DHT22;75315;49.006;9.060;2024-01-11T12:40:20;0.70;99.90
648;DHT22;75315;49.006;9.060;2024-01-11T12:42:46;0.60;99.90
648;DHT22;75315;49.006;9.060;2024-01-11T12:45:12;0.50;99.90
648;DHT22;75315;49.006;9.060;2024-01-11T12:47:38;0.40;99.90
648;DHT22;75315;49.006;9.060;2024-01-11T12:50:04;0.40;99.90
648;DHT22;75315;49.006;9.060;2024-01-11T12:52:30;0.40;99.90
648;DHT22;75315;49.006;9.060;2024-01-11T12:54:58;0.40;99.90
648;DHT22;75315;49.006;9.060;2024-01-11T12:57:25;0.30;99.90
648;DHT22;75315;49.006;9.060;2024-01-11T12:59:54;0.30;99.90
648;DHT22;75315;49.006;9.060;2024-01-11T13:02:19;0.40;99.90
648;DHT22;75315;49.006;9.060;2024-01-11T13:04:45;0.30;99.90
648;DHT22;75315;49.006;9.060;2024-01-11T13:07:12;0.30;99.90
648;DHT22;75315;49.006;9.060;2024-01-11T13:09:38;0.20;99.90
648;DHT22;75315;49.006;9.060;2024-01-11T13:12:04;0.20;99.90
648;DHT22;75315;49.006;9.060;2024-01-11T13:14:30;0.20;99.90
648;DHT22;75315;49.006;9.060;2024-01-11T13:16:57;0.10;99.90
648;DHT22;75315;49.006;9.060;2024-01-11T13:19:23;0.20;99.90
648;DHT22;75315;49.006;9.060;2024-01-11T13:21:48;0.10;99.90
648;DHT22;75315;49.006;9.060;2024-01-11T13:24:14;0.10;99.90
648;DHT22;75315;49.006;9.060;2024-01-11T13:26:40;0.00;99.90
648;DHT22;75315;49.006;9.060;2024-01-11T13:29:06;-0.10;99.90
648;DHT22;75315;49.006;9.060;2024-01-11T13:31:32;0.00;99.90
648;DHT22;75315;49.006;9.060;2024-01-11T13:33:59;-0.10;99.90
648;DHT22;75315;49.006;9.060;2024-01-11T13:36:25;-0.10;99.90
648;DHT22;75315;49.006;9.060;2024-01-11T13:38:51;-0.10;99.90
648;DHT22;75315;49.006;9.060;2024-01-11T13:41:16;-0.10;99.90
648;DHT22;75315;49.006;9.060;2024-01-11T13:43:45;-0.10;99.90
648;DHT22;75315;49.006;9.060;2024-01-11T13:46:11;0.00;99.90
648;DHT22;75315;49.006;9.060;2024-01-11T13:48:38;0.10;99.90
648;DHT22;75315;49.006;9.060;2024-01-11T13:51:04;0.20;99.90
648;DHT22;75315;49.006;9.060;2024-01-11T13:53:30;0.40;99.90
648;DHT22;75315;49.006;9.060;2024-01-11T13:55:56;0.20;99.90
648;DHT22;75315;49.006;9.060;2024-01-11T13:58:22;0.20;99.90
648;DHT22;75315;49.006;9.060;2024-01-11T14:00:48;0.30;99.90
648;DHT22;75315;49.006;9.060;2024-01-11T14:03:13;0.30;99.90
648;DHT22;75315;49.006;9.060;2024-01-11T14:05:39;0.30;99.90
648;DHT22;75315;49.006;9.060;2024-01-11T14:08:05;0.10;99.90
648;DHT22;75315;49.006;9.060;2024-01-11T14:10:33;0.30;99.90
648;DHT22;75315;49.006;9.060;2024-01-11T14:13:00;0.30;99.90
648;DHT22;75315;49.006;9.060;2024-01-11T14:15:26;0.30;99.90
648;DHT22;75315;49.006;9.060;2024-01-11T14:17:52;0.40;99.90
648;DHT22;75315;49.006;9.060;2024-01-11T14:20:18;0.40;99.90
648;DHT22;75315;49.006;9.060;2024-01-11T14:22:45;0.30;99.90
648;DHT22;75315;49.006;9.060;2024-01-11T14:25:19;0.30;99.90
648;DHT22;75315;49.006;9.060;2024-01-11T14:27:44;0.40;99.90
648;DHT22;75315;49.006;9.060;2024-01-11T14:30:11;0.50;99.90
648;DHT22;75315;49.006;9.060;2024-01-11T14:32:37;0.30;99.90
648;DHT22;75315;49.006;9.060;2024-01-11T14:35:03;0.40;99.90
648;DHT22;75315;49.006;9.060;2024-01-11T14:37:36;0.30;99.90
648;DHT22;75315;49.006;9.060;2024-01-11T14:40:03;0.20;99.90
648;DHT22;75315;49.006;9.060;2024-01-11T14:42:32;0.10;99.90
648;DHT22;75315;49.006;9.060;2024-01-11T14:44:59;0.10;99.90
648;DHT22;75315;49.006;9.060;2024-01-11T14:47:24;0.20;99.90
648;DHT22;75315;49.006;9.060;2024-01-11T14:49:50;0.10;99.90
648;DHT22;75315;49.006;9.060;2024-01-11T14:52:17;0.00;99.90
648;DHT22;75315;49.006;9.060;2024-01-11T14:54:47;0.00;99.90
648;DHT22;75315;49.006;9.060;2024-01-11T14:57:16;0.00;99.90
648;DHT22;75315;49.006;9.060;2024-01-11T14:59:44;0.00;99.90
648;DHT22;75315;49.006;9.060;2024-01-11T15:02:11;0.00;99.90
648;DHT22;75315;49.006;9.060;2024-01-11T15:04:36;0.00;99.90
648;DHT22;75315;49.006;9.060;2024-01-11T15:07:02;-0.20;99.90
648;DHT22;75315;49.006;9.060;2024-01-11T15:09:28;-0.20;99.90
648;DHT22;75315;49.006;9.060;2024-01-11T15:11:54;-0.20;99.90
648;DHT22;75315;49.006;9.060;2024-01-11T15:14:19;-0.30;99.90
648;DHT22;75315;49.006;9.060;2024-01-11T15:16:45;-0.40;99.90
648;DHT22;75315;49.006;9.060;2024-01-11T15:19:12;-0.30;99.90
648;DHT22;75315;49.006;9.060;2024-01-11T15:21:40;-0.40;99.90
648;DHT22;75315;49.006;9.060;2024-01-11T15:24:07;-0.40;99.90
648;DHT22;75315;49.006;9.060;2024-01-11T15:26:33;-0.30;99.90
648;DHT22;75315;49.006;9.060;2024-01-11T15:28:59;-0.50;99.90
648;DHT22;75315;49.006;9.060;2024-01-11T15:31:25;-0.50;99.90
648;DHT22;75315;49.006;9.060;2024-01-11T15:33:51;-0.80;99.90
648;DHT22;75315;49.006;9.060;2024-01-11T15:36:17;-0.70;99.90
648;DHT22;75315;49.006;9.060;2024-01-11T15:38:44;-0.70;99.90
648;DHT22;75315;49.006;9.060;2024-01-11T15:41:09;-0.90;99.90
648;DHT22;75315;49.006;9.060;2024-01-11T15:43:35;-0.80;99.90
648;DHT22;75315;49.006;9.060;2024-01-11T15:46:02;-0.90;99.90
648;DHT22;75315;49.006;9.060;2024-01-11T15:48:28;-0.90;99.90
648;DHT22;75315;49.006;9.060;2024-01-11T15:53:34;-1.30;99.90
648;DHT22;75315;49.006;9.060;2024-01-11T15:56:02;-1.40;99.90
648;DHT22;75315;49.006;9.060;2024-01-11T15:58:28;-1.50;99.90
648;DHT22;75315;49.006;9.060;2024-01-11T16:00:54;-1.50;99.90
648;DHT22;75315;49.006;9.060;2024-01-11T16:03:19;-1.60;99.90
648;DHT22;75315;49.006;9.060;2024-01-11T16:05:45;-1.60;99.90
648;DHT22;75315;49.006;9.060;2024-01-11T16:08:11;-1.70;99.90
648;DHT22;75315;49.006;9.060;2024-01-11T16:10:36;-1.70;99.90
648;DHT22;75315;49.006;9.060;2024-01-11T16:13:02;-1.80;99.90